Terminal Aerodrome Forecast
Issued by NWS Shreveport, LA

Home | Current Version | Previous Version | Text Only | Print | Product List | Glossary On
Versions: 1 2 3 4 5 6 7 8 9 10 11 12 13 14 15 16 17 18 19 20
000
FTUS44 KSHV 170036 RRA
TAFMLU
TAF
KMLU 170036Z 1701/1724 18008G16KT P6SM SCT035 BKN070 OVC120
      TEMPO 1703/1705 BKN025 OVC045
     FM170500 18004KT P6SM BKN015 OVC030
     FM170700 20004KT 6SM BR OVC007
     FM171000 21006KT 5SM BR VCSH OVC005
     FM171400 01004KT 4SM -RA BR VCTS OVC007CB
     FM171700 35005KT 4SM -RA BR OVC007
     FM171900 34005KT P6SM OVC010=

USA.gov is the U.S. government's official web portal to all federal, state and local government web resources and services.